Time;durP1;ratioP1;P1;durP2;ratioP2;P2;SDS_P1;SDS_P2;PMS_P1;PMS_P2;Temp;Humidity;BMP_temperature;BMP_pressure;BME280_temperature;BME280_humidity;BME280_pressure;Samples;Min_cycle;Max_cycle;Signal;HPM_P1;HPM_P2
2023/05/02 00:00:38;;;;;;;1.90;1.30;;;23.80;49.30;;;;;;5040713;28;20484;-69
2023/05/02 00:03:05;;;;;;;1.98;1.33;;;23.70;49.30;;;;;;5040600;28;20025;-68
2023/05/02 00:05:30;;;;;;;1.48;1.23;;;23.70;49.30;;;;;;5041946;28;20033;-68
2023/05/02 00:07:56;;;;;;;1.80;1.40;;;23.70;49.30;;;;;;5043475;28;20033;-69
2023/05/02 00:10:22;;;;;;;1.70;1.30;;;23.70;49.30;;;;;;5037588;28;20025;-69
2023/05/02 00:12:47;;;;;;;1.88;1.33;;;23.70;49.30;;;;;;5038561;28;20033;-68
2023/05/02 00:15:13;;;;;;;2.35;1.40;;;23.70;49.40;;;;;;5040936;28;20025;-68
2023/05/02 00:17:40;;;;;;;1.40;1.10;;;23.70;49.40;;;;;;5039582;28;20401;-69
2023/05/02 00:20:08;;;;;;;1.42;1.20;;;23.70;49.40;;;;;;5039691;28;20024;-69
2023/05/02 00:22:34;;;;;;;1.52;1.20;;;23.70;49.40;;;;;;5037605;28;20025;-68
2023/05/02 00:25:00;;;;;;;1.83;1.40;;;23.70;49.40;;;;;;5035459;28;20020;-68
2023/05/02 00:27:26;;;;;;;1.80;1.30;;;23.70;49.40;;;;;;5035722;28;20033;-69
2023/05/02 00:29:52;;;;;;;2.50;1.42;;;23.70;49.40;;;;;;5037696;28;20409;-68
2023/05/02 00:32:18;;;;;;;1.55;1.17;;;23.70;49.50;;;;;;5040791;28;20044;-68
2023/05/02 00:34:44;;;;;;;1.75;1.20;;;23.60;49.40;;;;;;5038758;28;20029;-69
2023/05/02 00:37:10;;;;;;;1.88;1.30;;;23.60;49.40;;;;;;5039650;28;20115;-67
2023/05/02 00:39:35;;;;;;;1.58;1.30;;;23.60;49.50;;;;;;5040210;28;20026;-69
2023/05/02 00:42:02;;;;;;;1.55;1.30;;;23.60;49.50;;;;;;5039778;28;20029;-69
2023/05/02 00:44:27;;;;;;;1.80;1.30;;;23.60;49.50;;;;;;5037982;28;20037;-68
2023/05/02 00:46:54;;;;;;;2.97;1.40;;;23.60;49.50;;;;;;5039181;28;20056;-69
2023/05/02 00:49:20;;;;;;;2.15;1.13;;;23.60;49.50;;;;;;5038260;28;20080;-69
2023/05/02 00:51:45;;;;;;;1.60;1.30;;;23.60;49.50;;;;;;5037441;28;20433;-68
2023/05/02 00:54:14;;;;;;;1.65;1.30;;;23.60;49.50;;;;;;5038800;28;20338;-69
2023/05/02 00:56:40;;;;;;;1.77;1.33;;;23.60;49.50;;;;;;5045109;28;20147;-68
2023/05/02 00:59:08;;;;;;;2.10;1.60;;;23.60;49.60;;;;;;5038277;28;20128;-68
2023/05/02 01:01:54;;;;;;;2.13;1.20;;;23.60;49.60;;;;;;5039547;28;20037;-68
2023/05/02 01:04:46;;;;;;;1.50;1.20;;;23.60;49.60;;;;;;5039080;28;20021;-68
2023/05/02 01:07:45;;;;;;;2.17;1.20;;;23.60;49.50;;;;;;5037320;28;20105;-69
2023/05/02 01:10:46;;;;;;;1.70;1.30;;;23.50;49.50;;;;;;5038135;28;20029;-69
2023/05/02 01:13:24;;;;;;;1.73;1.30;;;23.50;49.50;;;;;;5038753;28;20064;-68
2023/05/02 01:15:52;;;;;;;1.50;1.13;;;23.50;49.50;;;;;;5038526;28;20326;-68
2023/05/02 01:18:21;;;;;;;1.40;1.20;;;23.50;49.50;;;;;;5041354;28;20032;-68
2023/05/02 01:20:50;;;;;;;;;;;23.50;49.50;;;;;;5038884;28;20835;-69
2023/05/02 01:23:43;;;;;;;1.20;1.10;;;23.50;49.50;;;;;;5037016;28;19909;-68
2023/05/02 01:26:41;;;;;;;1.85;1.30;;;23.50;49.50;;;;;;5037157;28;20188;-69
2023/05/02 01:29:08;;;;;;;1.60;1.23;;;23.50;49.50;;;;;;5026285;28;20049;-69
2023/05/02 01:31:48;;;;;;;2.25;1.30;;;23.40;49.50;;;;;;5040326;28;20090;-69
2023/05/02 01:34:16;;;;;;;1.98;1.30;;;23.40;49.50;;;;;;5036482;28;20032;-69
2023/05/02 01:36:43;;;;;;;1.83;1.27;;;23.40;49.50;;;;;;5038846;28;20449;-69
2023/05/02 01:39:12;;;;;;;1.77;1.20;;;23.40;49.50;;;;;;5035375;28;20040;-68
2023/05/02 01:41:40;;;;;;;1.40;1.17;;;23.40;49.50;;;;;;5037588;28;20527;-68
2023/05/02 01:44:07;;;;;;;1.52;1.20;;;23.40;49.50;;;;;;5038103;28;20032;-69
2023/05/02 01:46:35;;;;;;;1.40;1.25;;;23.40;49.50;;;;;;5039435;28;20084;-68
2023/05/02 01:49:04;;;;;;;1.60;1.20;;;23.40;49.50;;;;;;5036296;28;20021;-70
2023/05/02 01:51:32;;;;;;;1.60;1.10;;;23.40;49.50;;;;;;5036083;28;20473;-68
2023/05/02 01:54:01;;;;;;;1.63;1.23;;;23.40;49.50;;;;;;5036383;28;20516;-68
2023/05/02 01:56:30;;;;;;;1.77;1.30;;;23.40;49.60;;;;;;5037853;28;20581;-68
2023/05/02 01:58:56;;;;;;;;;;;23.40;49.60;;;;;;5037704;28;20517;-68
2023/05/02 02:01:26;;;;;;;1.67;1.20;;;23.40;49.60;;;;;;5037750;28;20000;-69
2023/05/02 02:03:53;;;;;;;;;;;23.40;49.60;;;;;;5039270;28;20029;-68
2023/05/02 02:06:20;;;;;;;2.40;1.20;;;23.40;49.60;;;;;;5037451;28;20355;-68
2023/05/02 02:08:46;;;;;;;1.33;1.17;;;23.40;49.60;;;;;;5039586;28;20468;-68
2023/05/02 02:11:16;;;;;;;1.55;1.10;;;23.30;49.60;;;;;;5034312;28;20033;-69
2023/05/02 02:13:51;;;;;;;1.20;1.10;;;23.40;49.60;;;;;;5039161;28;20029;-68
2023/05/02 02:16:23;;;;;;;2.05;1.20;;;23.30;49.60;;;;;;5037891;28;20338;-69
2023/05/02 02:18:50;;;;;;;1.15;1.00;;;23.30;49.60;;;;;;5050562;28;20543;-69
2023/05/02 02:21:19;;;;;;;1.55;1.20;;;23.30;49.60;;;;;;5036116;28;20025;-68
2023/05/02 02:23:48;;;;;;;1.13;1.00;;;23.30;49.60;;;;;;5037307;28;20060;-69
2023/05/02 02:26:16;;;;;;;1.13;1.02;;;23.30;49.60;;;;;;5034647;28;20056;-69
2023/05/02 02:28:42;;;;;;;1.80;1.30;;;23.30;49.70;;;;;;5036344;28;20133;-66
2023/05/02 02:31:07;;;;;;;1.48;1.27;;;23.30;49.70;;;;;;5035537;28;20137;-68
2023/05/02 02:33:33;;;;;;;1.70;1.20;;;23.30;49.60;;;;;;5034080;28;20443;-68
2023/05/02 02:36:32;;;;;;;1.40;1.10;;;23.30;49.70;;;;;;5036991;28;20025;-68
2023/05/02 02:38:59;;;;;;;;;;;23.20;49.60;;;;;;5038020;28;20122;-69
2023/05/02 02:41:36;;;;;;;1.50;1.25;;;23.30;49.70;;;;;;5031882;28;19908;-68
2023/05/02 02:44:21;;;;;;;1.42;1.20;;;23.30;49.70;;;;;;5035861;28;20041;-68
2023/05/02 02:47:00;;;;;;;1.80;1.20;;;23.30;49.70;;;;;;5038083;28;20047;-68
2023/05/02 02:49:38;;;;;;;1.38;1.20;;;23.20;49.60;;;;;;5037074;28;20585;-68
2023/05/02 02:52:26;;;;;;;1.17;1.08;;;23.20;49.70;;;;;;5035820;28;20028;-68
2023/05/02 02:55:12;;;;;;;1.60;1.20;;;23.20;49.70;;;;;;5036048;28;20360;-68
2023/05/02 02:57:56;;;;;;;2.10;1.08;;;23.20;49.60;;;;;;5037043;28;20523;-69
2023/05/02 03:00:26;;;;;;;1.80;1.20;;;23.20;49.70;;;;;;5033322;28;20037;-68
2023/05/02 03:02:53;;;;;;;1.42;1.10;;;23.20;49.70;;;;;;5037478;28;20029;-69
2023/05/02 03:05:20;;;;;;;1.92;1.10;;;23.20;49.60;;;;;;5052086;28;20171;-69
2023/05/02 03:07:45;;;;;;;1.33;1.13;;;23.20;49.70;;;;;;5036388;28;20018;-68
2023/05/02 03:10:11;;;;;;;1.67;1.20;;;23.20;49.70;;;;;;5036051;28;20078;-68
2023/05/02 03:12:38;;;;;;;1.60;1.25;;;23.20;49.70;;;;;;5038542;28;20366;-68
2023/05/02 03:15:32;;;;;;;1.70;1.30;;;23.20;49.70;;;;;;5042378;28;20033;-68
2023/05/02 03:17:58;;;;;;;1.52;1.27;;;23.20;49.80;;;;;;5041137;28;20049;-69
2023/05/02 03:20:23;;;;;;;1.63;1.20;;;23.20;49.70;;;;;;5040190;28;20040;-68
2023/05/02 03:22:49;;;;;;;1.83;1.20;;;23.10;49.70;;;;;;5039709;28;20029;-69
2023/05/02 03:25:15;;;;;;;1.30;1.00;;;23.10;49.70;;;;;;5038533;28;20929;-68
2023/05/02 03:27:40;;;;;;;1.20;1.10;;;23.10;49.70;;;;;;5041279;28;20039;-68
2023/05/02 03:30:07;;;;;;;1.10;1.00;;;23.10;49.70;;;;;;5041350;28;20036;-69
2023/05/02 03:32:32;;;;;;;1.85;1.30;;;23.10;49.70;;;;;;5040541;28;20032;-69
2023/05/02 03:34:58;;;;;;;1.63;1.20;;;23.10;49.70;;;;;;5039418;28;20481;-69
2023/05/02 03:37:24;;;;;;;1.13;1.00;;;23.10;49.70;;;;;;5042879;28;20025;-69
2023/05/02 03:39:50;;;;;;;1.70;1.25;;;23.10;49.70;;;;;;5038257;28;20021;-69
2023/05/02 03:42:15;;;;;;;1.30;1.10;;;23.10;49.70;;;;;;5039045;28;20022;-68
2023/05/02 03:44:41;;;;;;;1.42;1.17;;;23.10;49.70;;;;;;5041169;28;20485;-69
2023/05/02 03:47:07;;;;;;;1.38;1.10;;;23.10;49.70;;;;;;5039999;28;20412;-69
2023/05/02 03:49:35;;;;;;;1.15;1.00;;;23.10;49.70;;;;;;5041458;28;20043;-69
2023/05/02 03:52:01;;;;;;;1.60;1.10;;;23.10;49.70;;;;;;5039252;28;20021;-69
2023/05/02 03:54:27;;;;;;;1.30;1.10;;;23.10;49.70;;;;;;5040179;28;20266;-69
2023/05/02 03:56:53;;;;;;;1.48;1.10;;;23.10;49.70;;;;;;5037327;28;20044;-69
2023/05/02 03:59:19;;;;;;;1.98;1.13;;;23.10;49.70;;;;;;5036444;28;20040;-70
2023/05/02 04:01:47;;;;;;;1.50;1.10;;;23.10;49.70;;;;;;5040326;28;20116;-69
2023/05/02 04:04:13;;;;;;;1.63;1.05;;;23.10;49.70;;;;;;5039278;28;20100;-67
2023/05/02 04:06:39;;;;;;;1.73;1.30;;;23.00;49.60;;;;;;5039416;28;20485;-68
2023/05/02 04:09:04;;;;;;;1.70;1.10;;;23.00;49.60;;;;;;5039803;28;20124;-68
2023/05/02 04:11:30;;;;;;;1.55;1.10;;;23.00;49.60;;;;;;5036227;28;20025;-69
2023/05/02 04:13:56;;;;;;;1.65;1.20;;;23.10;49.60;;;;;;5039879;28;20021;-69
2023/05/02 04:16:21;;;;;;;1.48;1.10;;;23.00;49.50;;;;;;5038465;28;20029;-68
2023/05/02 04:18:47;;;;;;;1.40;1.00;;;23.00;50.00;;;;;;5040678;28;20025;-68
2023/05/02 04:21:12;;;;;;;1.73;1.20;;;23.00;49.50;;;;;;5037095;28;20040;-69
2023/05/02 04:23:38;;;;;;;1.40;1.17;;;23.00;49.40;;;;;;5039686;28;20160;-68
2023/05/02 04:26:04;;;;;;;1.40;1.20;;;23.00;49.40;;;;;;5037505;28;20486;-69
2023/05/02 04:28:30;;;;;;;1.40;1.20;;;23.00;49.90;;;;;;5040520;28;20037;-68
2023/05/02 04:30:56;;;;;;;2.17;1.20;;;23.00;49.30;;;;;;5038563;28;20425;-69
2023/05/02 04:33:22;;;;;;;1.50;1.20;;;23.00;49.30;;;;;;5039903;28;20087;-69
2023/05/02 04:35:48;;;;;;;1.52;1.27;;;23.00;49.30;;;;;;5040599;28;20025;-69
2023/05/02 04:38:15;;;;;;;1.40;1.20;;;23.00;49.30;;;;;;5031252;28;20080;-68
2023/05/02 04:40:41;;;;;;;1.65;1.40;;;23.00;49.30;;;;;;5033268;28;20052;-69
2023/05/02 04:43:06;;;;;;;1.52;1.17;;;23.00;49.30;;;;;;5035477;28;20144;-66
2023/05/02 04:45:35;;;;;;;1.45;1.20;;;23.00;49.30;;;;;;5036731;28;20036;-66
2023/05/02 04:48:01;;;;;;;1.85;1.30;;;23.00;49.40;;;;;;5036356;28;20445;-66
2023/05/02 04:50:27;;;;;;;1.58;1.30;;;23.00;49.40;;;;;;5038073;28;20037;-66
2023/05/02 04:52:53;;;;;;;2.28;1.20;;;23.00;50.00;;;;;;5037168;28;20025;-66
2023/05/02 04:55:19;;;;;;;2.25;1.45;;;22.90;49.40;;;;;;5038928;28;20055;-66
2023/05/02 04:57:44;;;;;;;1.63;1.30;;;22.90;49.40;;;;;;5038968;28;20076;-65
2023/05/02 05:00:10;;;;;;;2.10;1.30;;;22.90;49.40;;;;;;5037395;28;20530;-66
2023/05/02 05:02:38;;;;;;;1.52;1.20;;;23.00;49.50;;;;;;5040075;28;20024;-66
2023/05/02 05:05:04;;;;;;;1.45;1.10;;;22.90;49.50;;;;;;5037358;28;20440;-66
2023/05/02 05:07:29;;;;;;;1.45;1.10;;;22.90;49.50;;;;;;5036808;28;20056;-65
2023/05/02 05:09:55;;;;;;;1.45;1.10;;;22.90;49.50;;;;;;5038286;28;20053;-66
2023/05/02 05:12:21;;;;;;;1.90;1.27;;;22.90;49.50;;;;;;5038120;28;20045;-67
2023/05/02 05:14:46;;;;;;;1.63;1.15;;;22.90;49.50;;;;;;5038681;28;20104;-68
2023/05/02 05:17:12;;;;;;;2.03;1.30;;;22.90;50.10;;;;;;5038170;28;20751;-65
2023/05/02 05:19:38;;;;;;;1.73;1.10;;;22.90;49.50;;;;;;5035026;28;20129;-65
2023/05/02 05:22:03;;;;;;;1.48;1.10;;;22.90;49.50;;;;;;5038391;28;20032;-66
2023/05/02 05:24:29;;;;;;;2.38;1.20;;;22.90;49.50;;;;;;5037099;28;20021;-66
2023/05/02 05:26:54;;;;;;;1.45;1.20;;;22.90;49.50;;;;;;5037960;28;20106;-66
2023/05/02 05:29:20;;;;;;;1.50;1.02;;;22.90;49.50;;;;;;5039064;28;20076;-66
2023/05/02 05:31:45;;;;;;;1.75;1.40;;;22.90;49.50;;;;;;5039197;28;20056;-66
2023/05/02 05:34:12;;;;;;;1.83;1.20;;;22.90;49.50;;;;;;5039048;28;20104;-66
2023/05/02 05:36:39;;;;;;;1.92;1.33;;;22.90;49.50;;;;;;5035474;28;20384;-66
2023/05/02 05:39:05;;;;;;;1.70;1.20;;;22.90;49.50;;;;;;5037053;28;20028;-66
2023/05/02 05:41:31;;;;;;;1.77;1.30;;;22.90;49.50;;;;;;5034129;28;20029;-66
2023/05/02 05:43:56;;;;;;;1.50;1.25;;;22.90;49.60;;;;;;5034353;28;20031;-65
2023/05/02 05:46:22;;;;;;;2.20;1.33;;;22.90;49.60;;;;;;5037768;28;20024;-66
2023/05/02 05:48:47;;;;;;;2.58;1.35;;;22.90;49.70;;;;;;5039338;28;20535;-66
2023/05/02 05:51:13;;;;;;;2.13;1.27;;;22.90;49.60;;;;;;5043581;28;20029;-66
2023/05/02 05:53:38;;;;;;;2.20;1.20;;;22.90;49.60;;;;;;5035797;28;20171;-65
2023/05/02 05:56:09;;;;;;;1.90;1.40;;;22.90;49.50;;;;;;5035582;28;20029;-66
2023/05/02 05:58:35;;;;;;;2.10;1.38;;;22.90;49.50;;;;;;5040022;28;20044;-66
2023/05/02 06:01:01;;;;;;;1.70;1.20;;;22.90;49.50;;;;;;5033686;28;20030;-66
2023/05/02 06:03:26;;;;;;;3.15;1.40;;;22.90;49.50;;;;;;5036251;28;20025;-66
2023/05/02 06:05:52;;;;;;;2.15;1.23;;;22.90;49.50;;;;;;5037272;28;20052;-66
2023/05/02 06:08:18;;;;;;;1.77;1.30;;;22.90;49.50;;;;;;5038486;28;20045;-66
2023/05/02 06:10:43;;;;;;;1.88;1.30;;;22.90;49.50;;;;;;5037983;28;20485;-65
2023/05/02 06:13:09;;;;;;;2.38;1.30;;;22.90;49.50;;;;;;5034068;28;20033;-66
2023/05/02 06:15:35;;;;;;;2.15;1.30;;;22.90;49.50;;;;;;5035362;28;20496;-66
2023/05/02 06:18:00;;;;;;;2.40;1.30;;;22.90;49.50;;;;;;5035768;28;20048;-65
2023/05/02 06:20:26;;;;;;;1.38;1.10;;;22.90;49.50;;;;;;5038956;28;20212;-66
2023/05/02 06:22:51;;;;;;;2.15;1.27;;;22.90;49.50;;;;;;5037916;28;20025;-68
2023/05/02 06:25:17;;;;;;;2.20;1.23;;;22.90;49.50;;;;;;5038461;28;20036;-68
2023/05/02 06:27:42;;;;;;;1.45;1.20;;;22.90;49.50;;;;;;5037421;28;20033;-68
2023/05/02 06:30:08;;;;;;;2.03;1.30;;;22.90;49.50;;;;;;5035604;28;20395;-67
2023/05/02 06:32:34;;;;;;;1.50;1.10;;;22.90;49.50;;;;;;5036782;28;20022;-66
2023/05/02 06:34:59;;;;;;;1.75;1.20;;;22.90;49.50;;;;;;5043481;28;20550;-65
2023/05/02 06:37:25;;;;;;;1.98;1.30;;;22.90;49.50;;;;;;5036633;28;20374;-66
2023/05/02 06:39:51;;;;;;;1.85;1.25;;;22.90;49.40;;;;;;5036924;28;20033;-66
2023/05/02 06:42:16;;;;;;;1.45;1.10;;;22.90;49.50;;;;;;5042828;28;20025;-67
2023/05/02 06:44:42;;;;;;;1.67;1.13;;;22.90;49.40;;;;;;5037217;28;20120;-66
2023/05/02 06:47:07;;;;;;;1.88;1.23;;;22.90;49.50;;;;;;5035360;28;20385;-66
2023/05/02 06:49:33;;;;;;;1.95;1.20;;;22.90;49.40;;;;;;5039044;28;20108;-66
2023/05/02 06:51:58;;;;;;;1.58;1.10;;;22.90;49.40;;;;;;5042469;28;20033;-66
2023/05/02 06:54:25;;;;;;;1.73;1.30;;;22.90;49.40;;;;;;5040624;28;20362;-66
2023/05/02 06:56:50;;;;;;;1.75;1.20;;;22.90;49.40;;;;;;5039059;28;20033;-66
2023/05/02 06:59:16;;;;;;;1.75;1.30;;;22.90;49.40;;;;;;5040600;28;20087;-67
2023/05/02 07:01:45;;;;;;;1.48;1.10;;;22.90;49.40;;;;;;5037383;28;20032;-66
2023/05/02 07:04:10;;;;;;;1.70;1.30;;;22.90;49.40;;;;;;5041800;28;20076;-67
2023/05/02 07:06:36;;;;;;;2.00;1.20;;;22.90;49.40;;;;;;5041195;28;20438;-66
2023/05/02 07:09:02;;;;;;;1.50;1.10;;;22.90;49.90;;;;;;5047274;28;20033;-66
2023/05/02 07:11:28;;;;;;;1.70;1.20;;;22.90;49.40;;;;;;5041115;28;20546;-66
2023/05/02 07:13:53;;;;;;;1.50;1.10;;;22.90;49.40;;;;;;5039715;28;20079;-66
2023/05/02 07:16:19;;;;;;;1.40;1.10;;;22.90;49.40;;;;;;5042257;28;20055;-67
2023/05/02 07:18:44;;;;;;;1.77;1.25;;;22.90;49.40;;;;;;5040721;28;20535;-68
2023/05/02 07:21:11;;;;;;;1.80;1.30;;;22.90;49.40;;;;;;5037824;28;20438;-68
2023/05/02 07:23:37;;;;;;;1.75;1.40;;;22.90;49.40;;;;;;5040853;28;20021;-68
2023/05/02 07:26:04;;;;;;;2.03;1.25;;;22.90;49.40;;;;;;5038962;28;20033;-69
2023/05/02 07:28:30;;;;;;;1.50;1.15;;;22.90;49.40;;;;;;5039393;28;20047;-69
2023/05/02 07:30:55;;;;;;;1.65;1.13;;;22.90;49.40;;;;;;5040947;28;20059;-69
2023/05/02 07:33:22;;;;;;;1.67;1.15;;;22.90;49.40;;;;;;5040892;28;20402;-68
2023/05/02 07:35:48;;;;;;;2.13;1.33;;;22.90;49.40;;;;;;5040923;28;20302;-66
2023/05/02 07:38:14;;;;;;;1.63;1.20;;;22.90;49.30;;;;;;5042017;28;20469;-67
2023/05/02 07:40:40;;;;;;;1.92;1.17;;;22.90;49.40;;;;;;5038694;28;20029;-66
2023/05/02 07:43:06;;;;;;;1.60;1.20;;;22.90;49.40;;;;;;5039258;28;20493;-66
2023/05/02 07:45:31;;;;;;;1.65;1.10;;;22.90;49.40;;;;;;5042205;28;20067;-66
2023/05/02 07:47:57;;;;;;;2.97;1.42;;;22.90;49.40;;;;;;5040591;28;20438;-66
2023/05/02 07:50:23;;;;;;;1.38;1.05;;;22.90;49.40;;;;;;5040183;28;20029;-66
2023/05/02 07:52:48;;;;;;;1.77;1.20;;;22.90;49.40;;;;;;5037221;28;20033;-66
2023/05/02 07:55:14;;;;;;;1.70;1.10;;;22.90;49.40;;;;;;5037694;28;20037;-67
2023/05/02 07:57:40;;;;;;;1.60;1.05;;;22.90;49.40;;;;;;5038552;28;20026;-66
2023/05/02 08:00:09;;;;;;;2.17;1.20;;;22.90;49.40;;;;;;5038395;28;20017;-66
2023/05/02 08:02:35;;;;;;;;;;;22.90;49.40;;;;;;5040926;28;20067;-66
2023/05/02 08:05:02;;;;;;;1.90;1.30;;;22.90;49.90;;;;;;5044931;28;20300;-66
2023/05/02 08:07:27;;;;;;;1.30;1.10;;;22.90;49.40;;;;;;5038615;28;20433;-66
2023/05/02 08:09:53;;;;;;;1.45;1.05;;;22.90;49.40;;;;;;5039515;28;20025;-67
2023/05/02 08:12:18;;;;;;;2.05;1.35;;;22.90;49.40;;;;;;5070293;28;20469;-66
2023/05/02 08:14:44;;;;;;;1.73;1.23;;;22.90;49.40;;;;;;5040133;28;20036;-66
2023/05/02 08:17:09;;;;;;;2.40;1.20;;;22.90;49.40;;;;;;5038315;28;20029;-67
2023/05/02 08:19:35;;;;;;;1.73;1.20;;;22.90;49.40;;;;;;5040820;28;20036;-67
2023/05/02 08:22:01;;;;;;;1.55;1.08;;;22.90;49.40;;;;;;5039603;28;20057;-66
2023/05/02 08:24:26;;;;;;;1.73;1.20;;;22.90;49.40;;;;;;5038819;28;20020;-67
2023/05/02 08:26:52;;;;;;;1.42;1.13;;;22.90;49.40;;;;;;5037000;28;20041;-66
2023/05/02 08:29:18;;;;;;;1.50;1.25;;;22.90;49.40;;;;;;5039600;28;20064;-66
2023/05/02 08:31:43;;;;;;;1.45;1.10;;;22.90;49.40;;;;;;5036933;28;20021;-66
2023/05/02 08:34:09;;;;;;;1.83;1.20;;;22.90;49.40;;;;;;5039206;28;20029;-66
2023/05/02 08:36:36;;;;;;;2.08;1.10;;;22.80;49.40;;;;;;5037834;28;20112;-66
2023/05/02 08:39:02;;;;;;;1.60;1.10;;;22.80;49.30;;;;;;5040734;28;20029;-67
2023/05/02 08:41:29;;;;;;;1.33;1.05;;;22.90;49.40;;;;;;5038222;28;20482;-66
2023/05/02 08:43:55;;;;;;;2.08;1.20;;;22.90;49.40;;;;;;5038611;28;20465;-67
2023/05/02 08:46:22;;;;;;;1.70;1.13;;;22.80;49.30;;;;;;5039859;28;20384;-66
2023/05/02 08:48:50;;;;;;;1.58;1.10;;;22.80;49.40;;;;;;5037580;28;20029;-66
2023/05/02 08:51:17;;;;;;;1.15;1.00;;;22.90;49.40;;;;;;5040045;28;20037;-66
2023/05/02 08:53:44;;;;;;;1.83;1.20;;;22.80;49.40;;;;;;5038615;28;20136;-66
2023/05/02 08:56:11;;;;;;;1.60;1.10;;;22.80;49.40;;;;;;5037335;28;20092;-66
2023/05/02 08:58:39;;;;;;;1.85;1.27;;;22.80;49.40;;;;;;5035554;28;20113;-67
2023/05/02 09:01:21;;;;;;;1.70;1.20;;;22.80;49.40;;;;;;5036821;28;20025;-66
2023/05/02 09:03:47;;;;;;;1.45;1.10;;;22.80;49.40;;;;;;5040453;28;20484;-67
2023/05/02 09:06:19;;;;;;;1.58;1.20;;;22.80;49.40;;;;;;5039101;28;20052;-67
2023/05/02 09:08:48;;;;;;;1.75;1.20;;;22.80;49.40;;;;;;5042368;28;20025;-66
2023/05/02 09:11:15;;;;;;;1.73;1.20;;;22.80;49.40;;;;;;5038108;28;20025;-67
2023/05/02 09:13:44;;;;;;;1.40;1.10;;;22.80;49.40;;;;;;5037433;28;20120;-66
2023/05/02 09:16:14;;;;;;;;;;;22.80;49.40;;;;;;5037396;28;20112;-67
2023/05/02 09:18:47;;;;;;;1.40;1.10;;;22.80;49.40;;;;;;5040909;28;19912;-67
2023/05/02 09:21:20;;;;;;;1.67;1.20;;;22.80;49.50;;;;;;5036484;28;20021;-67
2023/05/02 09:23:48;;;;;;;2.33;1.45;;;22.80;49.40;;;;;;5036964;28;20033;-67
2023/05/02 09:26:32;;;;;;;1.92;1.10;;;22.80;49.50;;;;;;5035830;28;20437;-66
2023/05/02 09:29:02;;;;;;;1.52;1.00;;;22.80;49.50;;;;;;5035125;28;20448;-67
2023/05/02 09:31:35;;;;;;;1.42;1.10;;;22.80;49.40;;;;;;5038791;28;20041;-67
2023/05/02 09:34:13;;;;;;;1.83;1.30;;;22.80;49.40;;;;;;5035682;28;20107;-67
2023/05/02 09:36:40;;;;;;;1.35;1.05;;;22.80;49.50;;;;;;5039796;28;20087;-66
2023/05/02 09:39:11;;;;;;;1.52;1.10;;;22.80;49.50;;;;;;5039473;28;20446;-66
2023/05/02 09:41:45;;;;;;;1.83;1.10;;;22.80;49.40;;;;;;5038556;28;20020;-66
2023/05/02 09:44:12;;;;;;;1.67;1.15;;;22.80;49.50;;;;;;5035193;28;20026;-66
2023/05/02 09:46:40;;;;;;;1.45;1.13;;;22.80;49.50;;;;;;5038175;28;20051;-66
2023/05/02 09:49:07;;;;;;;1.30;1.00;;;22.80;49.50;;;;;;5036484;28;20049;-66
2023/05/02 09:51:32;;;;;;;1.33;1.00;;;22.80;49.50;;;;;;5038631;28;20029;-66
2023/05/02 09:53:58;;;;;;;1.98;0.90;;;22.80;49.50;;;;;;5035537;28;20033;-66
2023/05/02 09:56:24;;;;;;;1.48;1.13;;;22.80;49.50;;;;;;5036119;28;20036;-65
2023/05/02 09:58:49;;;;;;;1.40;1.10;;;22.80;49.50;;;;;;5038077;28;20029;-65
2023/05/02 10:01:19;;;;;;;1.58;1.20;;;22.70;49.50;;;;;;5038177;28;20026;-66
2023/05/02 10:03:47;;;;;;;;;;;22.80;49.50;;;;;;5040402;28;20060;-66
2023/05/02 10:06:15;;;;;;;2.08;1.23;;;22.80;49.50;;;;;;5038791;28;20000;-65
2023/05/02 10:08:44;;;;;;;2.00;1.30;;;22.80;49.50;;;;;;5036076;28;20638;-66
2023/05/02 10:11:12;;;;;;;1.33;1.08;;;22.80;49.50;;;;;;5038762;28;20029;-66
2023/05/02 10:13:39;;;;;;;1.85;1.20;;;22.80;49.50;;;;;;5038867;28;20552;-66
2023/05/02 10:16:06;;;;;;;1.50;1.05;;;22.70;49.40;;;;;;5035158;28;20580;-65
2023/05/02 10:18:45;;;;;;;2.20;1.30;;;22.70;49.40;;;;;;5035300;28;20160;-66
2023/05/02 10:21:14;;;;;;;1.27;1.00;;;22.70;49.50;;;;;;5036236;28;20033;-66
2023/05/02 10:23:43;;;;;;;1.50;1.20;;;22.70;50.00;;;;;;5040208;28;20119;-65
2023/05/02 10:26:12;;;;;;;1.65;1.17;;;22.70;49.50;;;;;;5040486;28;20423;-66
2023/05/02 10:28:40;;;;;;;1.40;1.10;;;22.80;49.50;;;;;;5041330;28;20122;-68
2023/05/02 10:31:09;;;;;;;1.30;1.10;;;22.70;49.40;;;;;;5045049;28;20043;-68
2023/05/02 10:33:36;;;;;;;1.40;1.00;;;22.70;49.50;;;;;;5041695;28;20029;-69
2023/05/02 10:36:03;;;;;;;1.90;1.25;;;22.70;50.00;;;;;;5041898;28;20033;-68
2023/05/02 10:38:29;;;;;;;1.55;1.17;;;22.70;49.40;;;;;;5040012;28;20461;-68
2023/05/02 10:41:06;;;;;;;1.10;1.00;;;22.70;49.40;;;;;;5038699;28;20106;-68
2023/05/02 10:43:34;;;;;;;1.38;1.02;;;22.70;49.50;;;;;;5042258;28;20087;-66
2023/05/02 10:46:02;;;;;;;1.33;1.08;;;22.70;49.50;;;;;;5039476;28;20093;-67
2023/05/02 10:48:28;;;;;;;1.30;1.00;;;22.70;49.40;;;;;;5041081;28;20029;-67
2023/05/02 10:50:56;;;;;;;1.33;1.10;;;22.70;49.50;;;;;;5040851;28;20493;-67
2023/05/02 10:53:21;;;;;;;1.50;1.00;;;22.70;49.50;;;;;;5038920;28;20033;-67
2023/05/02 10:56:09;;;;;;;1.55;1.10;;;22.70;49.50;;;;;;5037733;28;20056;-67
2023/05/02 10:58:34;;;;;;;1.10;0.95;;;22.70;49.40;;;;;;5040613;28;20103;-66
2023/05/02 11:01:25;;;;;;;1.63;1.10;;;22.70;49.40;;;;;;5039743;28;20385;-67
2023/05/02 11:04:02;;;;;;;1.67;1.20;;;22.70;49.40;;;;;;5044091;28;20141;-67
2023/05/02 11:06:29;;;;;;;1.83;1.20;;;22.70;49.40;;;;;;5070447;28;20531;-66
2023/05/02 11:09:17;;;;;;;1.30;1.05;;;22.70;49.40;;;;;;5040108;28;20404;-67
2023/05/02 11:11:44;;;;;;;1.05;0.90;;;22.80;49.50;;;;;;5046172;28;20473;-68
2023/05/02 11:14:31;;;;;;;1.30;1.10;;;22.70;49.40;;;;;;5037159;28;20029;-68
2023/05/02 11:16:56;;;;;;;1.50;1.10;;;22.70;49.40;;;;;;5038874;28;20449;-68
2023/05/02 11:19:22;;;;;;;1.90;1.20;;;22.70;49.40;;;;;;5042624;28;20120;-68
2023/05/02 11:21:48;;;;;;;1.92;1.15;;;22.70;49.40;;;;;;5039871;28;20098;-68
2023/05/02 11:24:40;;;;;;;1.35;1.00;;;22.70;49.40;;;;;;5041294;28;20038;-70
2023/05/02 11:27:27;;;;;;;1.20;1.00;;;22.70;49.40;;;;;;5045148;28;20867;-69
2023/05/02 11:29:57;;;;;;;1.98;1.10;;;22.70;49.50;;;;;;5039559;28;20052;-70
2023/05/02 11:32:26;;;;;;;1.27;0.93;;;22.70;49.40;;;;;;5040071;28;20072;-69
2023/05/02 11:34:51;;;;;;;1.37;1.03;;;22.70;49.40;;;;;;5039200;28;20056;-70
2023/05/02 11:37:19;;;;;;;1.65;1.20;;;22.70;49.40;;;;;;5038841;28;20033;-70
2023/05/02 11:39:45;;;;;;;1.30;0.93;;;22.70;49.40;;;;;;5040632;28;20401;-70
2023/05/02 11:42:32;;;;;;;1.50;1.17;;;22.70;49.50;;;;;;5041937;28;20026;-70
2023/05/02 11:44:59;;;;;;;1.23;1.00;;;22.70;49.50;;;;;;5039036;28;20021;-70
2023/05/02 11:47:29;;;;;;;1.45;1.08;;;22.70;49.50;;;;;;5041229;28;20160;-70
2023/05/02 11:49:56;;;;;;;1.13;1.00;;;22.70;49.50;;;;;;5040556;28;20028;-69
2023/05/02 11:52:23;;;;;;;1.35;1.00;;;22.70;49.50;;;;;;5039535;28;20516;-69
2023/05/02 11:54:52;;;;;;;1.23;1.00;;;22.70;49.50;;;;;;5037952;28;20399;-69
2023/05/02 11:57:18;;;;;;;1.20;0.93;;;22.70;49.50;;;;;;5042380;28;20029;-69
2023/05/02 11:59:54;;;;;;;1.63;1.10;;;22.70;49.50;;;;;;5041168;28;20040;-69
2023/05/02 12:02:41;;;;;;;1.27;1.00;;;22.70;49.50;;;;;;5039496;28;20021;-69
2023/05/02 12:05:09;;;;;;;1.45;1.00;;;22.70;49.50;;;;;;5039404;28;20036;-69
2023/05/02 12:07:38;;;;;;;1.30;0.98;;;22.70;49.50;;;;;;5038677;28;20388;-72
2023/05/02 12:10:08;;;;;;;1.70;1.05;;;22.70;49.50;;;;;;5040004;28;20029;-69
2023/05/02 12:12:34;;;;;;;;;;;22.70;49.50;;;;;;5037440;28;20059;-69
2023/05/02 12:15:10;;;;;;;1.20;1.00;;;22.70;49.50;;;;;;5038016;28;19916;-70
2023/05/02 12:17:54;;;;;;;1.65;1.10;;;22.70;49.50;;;;;;5040870;28;20700;-70
2023/05/02 12:20:20;;;;;;;1.40;1.20;;;22.80;49.60;;;;;;5038931;28;20040;-69
2023/05/02 12:22:46;;;;;;;1.42;1.10;;;22.70;49.60;;;;;;5039460;28;20029;-70
2023/05/02 12:25:12;;;;;;;2.45;1.15;;;22.70;49.50;;;;;;5039181;28;20484;-70
2023/05/02 12:27:37;;;;;;;1.48;0.93;;;22.70;49.50;;;;;;5034945;28;20056;-71
2023/05/02 12:30:04;;;;;;;2.42;1.20;;;22.70;49.50;;;;;;5038651;28;20064;-70
2023/05/02 12:32:31;;;;;;;1.35;1.00;;;22.70;49.60;;;;;;5040231;28;20037;-70
2023/05/02 12:34:58;;;;;;;1.17;1.08;;;22.70;49.50;;;;;;5040645;28;20037;-69
2023/05/02 12:37:25;;;;;;;2.83;1.10;;;22.70;49.50;;;;;;5035903;28;20036;-70
2023/05/02 12:39:52;;;;;;;1.77;1.27;;;22.70;49.50;;;;;;5039010;28;20061;-70
2023/05/02 12:42:19;;;;;;;2.67;1.25;;;22.70;49.50;;;;;;5039424;28;20013;-70
2023/05/02 12:44:46;;;;;;;1.63;1.10;;;22.70;49.50;;;;;;5035020;28;20040;-70
2023/05/02 12:47:13;;;;;;;1.65;1.10;;;22.70;49.50;;;;;;5035077;28;20033;-71
2023/05/02 12:49:51;;;;;;;1.58;1.00;;;22.70;49.60;;;;;;5037846;28;20033;-69
2023/05/02 12:52:17;;;;;;;2.17;1.20;;;22.70;49.60;;;;;;5040718;28;20503;-70
2023/05/02 12:54:43;;;;;;;2.03;1.20;;;22.70;49.60;;;;;;5038658;28;20026;-70